Terminal Aerodrome Forecast
Issued by NWS

Home | Current Version | Previous Version | Text Only | Print | Product List | Glossary On
Versions: 1 2 3 4 5 6 7 8 9 10 11 12
000
FTUS45 KTFX 251751
TAFHLN
TAF
KHLN 251751Z 2518/2618 VRB04KT P6SM SCT080 BKN130
     FM252200 35011G20KT P6SM SCT050 BKN100
     FM260100 VRB03KT P6SM SCT060 BKN120
     FM261300 VRB03KT P6SM SKC=

USA.gov is the U.S. government's official web portal to all federal, state and local government web resources and services.